Aviation Digital Data Service (ADDS)

Output produced by METARs form (0008 UTC 23 March 2019)
found at http://www.aviationweather.gov/metar/data/
 
METAR text: FKKD 222300Z 04014KT 9999 SCT006 BKN010 SCT016CB 26/22 Q1011 TEMPO 09010G28KT 3000 TSRA
Conditions at: FKKD (DOUALA (CIV/MIL), CM) observed 2300 UTC 22 March 2019
Temperature: 26.0°C (79°F)
Dewpoint: 22.0°C (72°F) [RH = 79%]
Pressure (altimeter): 29.85 inches Hg (1011.0 mb)
Winds: from the NE (40 degrees) at 16 MPH (14 knots; 7.2 m/s)
Visibility: 6 or more miles (10+ km)
Ceiling: 1000 feet AGL
Clouds: scattered clouds at 600 feet AGL
broken clouds at 1000 feet AGL
scattered clouds at 1600 feet AGL
Weather: no significant weather observed at this time

METAR text: FKKD 222200Z 04005KT 350V070 9999 SCT013 FEW016CB 27/25 Q1011 NOSIG
Conditions at: FKKD (DOUALA (CIV/MIL), CM) observed 2200 UTC 22 March 2019
Temperature: 27.0°C (81°F)
Dewpoint: 25.0°C (77°F) [RH = 89%]
Pressure (altimeter): 29.85 inches Hg (1011.0 mb)
Winds: from the NE (40 degrees) at 6 MPH (5 knots; 2.6 m/s)
Visibility: 6 or more miles (10+ km)
Ceiling: at least 12,000 feet AGL
Clouds: scattered clouds at 1300 feet AGL
few clouds at 1600 feet AGL
Weather: no significant weather observed at this time

METAR text: FKKD 222100Z 00000KT 9000 FEW013 FEW016CB 25/25 Q1009 NOSIG
Conditions at: FKKD (DOUALA (CIV/MIL), CM) observed 2100 UTC 22 March 2019
Temperature: 25.0°C (77°F)
Dewpoint: 25.0°C (77°F) [RH = 100%]
Pressure (altimeter): 29.79 inches Hg (1009.0 mb)
Winds: calm
Visibility: 6 miles ( 9 km)
Ceiling: at least 12,000 feet AGL
Clouds: few clouds at 1300 feet AGL
few clouds at 1600 feet AGL
Weather: no significant weather observed at this time

METAR text: FKKD 222000Z VRB03KT 9000 FEW013 FEW016CB 26/25 Q1009 NOSIG
Conditions at: FKKD (DOUALA (CIV/MIL), CM) observed 2000 UTC 22 March 2019
Temperature: 26.0°C (79°F)
Dewpoint: 25.0°C (77°F) [RH = 94%]
Pressure (altimeter): 29.79 inches Hg (1009.0 mb)
Winds: variable direction winds at 3 MPH (3 knots; 1.5 m/s)
Visibility: 6 miles ( 9 km)
Ceiling: at least 12,000 feet AGL
Clouds: few clouds at 1300 feet AGL
few clouds at 1600 feet AGL
Weather: no significant weather observed at this time

METAR text: FKKD 221900Z 34003KT 9999 FEW013 FEW016CB 25/25 Q1007 NOSIG
Conditions at: FKKD (DOUALA (CIV/MIL), CM) observed 1900 UTC 22 March 2019
Temperature: 25.0°C (77°F)
Dewpoint: 25.0°C (77°F) [RH = 100%]
Pressure (altimeter): 29.73 inches Hg (1007.0 mb)
Winds: from the NNW (340 degrees) at 3 MPH (3 knots; 1.5 m/s)
Visibility: 6 or more miles (10+ km)
Ceiling: at least 12,000 feet AGL
Clouds: few clouds at 1300 feet AGL
few clouds at 1600 feet AGL
Weather: no significant weather observed at this time

METAR text: FKKD 221800Z 00000KT 9999 SCT013 FEW016CB 26/25 Q1007 NOSIG
Conditions at: FKKD (DOUALA (CIV/MIL), CM) observed 1800 UTC 22 March 2019
Temperature: 26.0°C (79°F)
Dewpoint: 25.0°C (77°F) [RH = 94%]
Pressure (altimeter): 29.73 inches Hg (1007.0 mb)
Winds: calm
Visibility: 6 or more miles (10+ km)
Ceiling: at least 12,000 feet AGL
Clouds: scattered clouds at 1300 feet AGL
few clouds at 1600 feet AGL
Weather: no significant weather observed at this time

METAR text: FKKD 221700Z 15003KT 9999 SCT013 FEW016CB 27/25 Q1007 NOSIG
Conditions at: FKKD (DOUALA (CIV/MIL), CM) observed 1700 UTC 22 March 2019
Temperature: 27.0°C (81°F)
Dewpoint: 25.0°C (77°F) [RH = 89%]
Pressure (altimeter): 29.73 inches Hg (1007.0 mb)
Winds: from the SSE (150 degrees) at 3 MPH (3 knots; 1.5 m/s)
Visibility: 6 or more miles (10+ km)
Ceiling: at least 12,000 feet AGL
Clouds: scattered clouds at 1300 feet AGL
few clouds at 1600 feet AGL
Weather: no significant weather observed at this time

METAR text: FKKD 221600Z VRB02KT 9999 SCT013 FEW016CB 29/24 Q1006 NOSIG
Conditions at: FKKD (DOUALA (CIV/MIL), CM) observed 1600 UTC 22 March 2019
Temperature: 29.0°C (84°F)
Dewpoint: 24.0°C (75°F) [RH = 74%]
Pressure (altimeter): 29.70 inches Hg (1006.0 mb)
Winds: variable direction winds at 2 MPH (2 knots; 1.0 m/s)
Visibility: 6 or more miles (10+ km)
Ceiling: at least 12,000 feet AGL
Clouds: scattered clouds at 1300 feet AGL
few clouds at 1600 feet AGL
Weather: no significant weather observed at this time

METAR text: FKKD 221500Z VRB03KT 9999 SCT013 FEW016CB 29/23 Q1006 NOSIG
Conditions at: FKKD (DOUALA (CIV/MIL), CM) observed 1500 UTC 22 March 2019
Temperature: 29.0°C (84°F)
Dewpoint: 23.0°C (73°F) [RH = 70%]
Pressure (altimeter): 29.70 inches Hg (1006.0 mb)
Winds: variable direction winds at 3 MPH (3 knots; 1.5 m/s)
Visibility: 6 or more miles (10+ km)
Ceiling: at least 12,000 feet AGL
Clouds: scattered clouds at 1300 feet AGL
few clouds at 1600 feet AGL
Weather: no significant weather observed at this time

METAR text: FKKD 221400Z VRB02KT 9999 SCT013 FEW016CB 29/23 Q1007 NOSIG
Conditions at: FKKD (DOUALA (CIV/MIL), CM) observed 1400 UTC 22 March 2019
Temperature: 29.0°C (84°F)
Dewpoint: 23.0°C (73°F) [RH = 70%]
Pressure (altimeter): 29.73 inches Hg (1007.0 mb)
Winds: variable direction winds at 2 MPH (2 knots; 1.0 m/s)
Visibility: 6 or more miles (10+ km)
Ceiling: at least 12,000 feet AGL
Clouds: scattered clouds at 1300 feet AGL
few clouds at 1600 feet AGL
Weather: no significant weather observed at this time

METAR text: FKKD 221300Z VRB02KT 8000 SCT013 FEW016CB 29/23 Q1008 NOSIG
Conditions at: FKKD (DOUALA (CIV/MIL), CM) observed 1300 UTC 22 March 2019
Temperature: 29.0°C (84°F)
Dewpoint: 23.0°C (73°F) [RH = 70%]
Pressure (altimeter): 29.76 inches Hg (1008.0 mb)
Winds: variable direction winds at 2 MPH (2 knots; 1.0 m/s)
Visibility: 5 miles ( 8 km)
Ceiling: at least 12,000 feet AGL
Clouds: scattered clouds at 1300 feet AGL
few clouds at 1600 feet AGL
Weather: no significant weather observed at this time

METAR text: FKKD 221200Z VRB02KT 6000 TS SCT013 SCT016CB 27/24 Q1009 BECMG NSW
Conditions at: FKKD (DOUALA (CIV/MIL), CM) observed 1200 UTC 22 March 2019
Temperature: 27.0°C (81°F)
Dewpoint: 24.0°C (75°F) [RH = 84%]
Pressure (altimeter): 29.79 inches Hg (1009.0 mb)
Winds: variable direction winds at 2 MPH (2 knots; 1.0 m/s)
Visibility: 4 miles ( 6 km)
Ceiling: at least 12,000 feet AGL
Clouds: scattered clouds at 1300 feet AGL
scattered clouds at 1600 feet AGL
Weather: TS  (thunderstorm)

METAR text: FKKD 221100Z VRB02KT 5000 TS FEW006 BKN013 SCT016CB 25/23 Q1010 NOSIG
Conditions at: FKKD (DOUALA (CIV/MIL), CM) observed 1100 UTC 22 March 2019
Temperature: 25.0°C (77°F)
Dewpoint: 23.0°C (73°F) [RH = 89%]
Pressure (altimeter): 29.82 inches Hg (1010.0 mb)
Winds: variable direction winds at 2 MPH (2 knots; 1.0 m/s)
Visibility: 3 miles ( 5 km)
Ceiling: 1300 feet AGL
Clouds: few clouds at 600 feet AGL
broken clouds at 1300 feet AGL
scattered clouds at 1600 feet AGL
Weather: TS  (thunderstorm)

METAR text: FKKD 221000Z VRB03KT 7000 TS FEW006 BKN013 SCT016CB 24/23 Q1010 NOSIG
Conditions at: FKKD (DOUALA (CIV/MIL), CM) observed 1000 UTC 22 March 2019
Temperature: 24.0°C (75°F)
Dewpoint: 23.0°C (73°F) [RH = 94%]
Pressure (altimeter): 29.82 inches Hg (1010.0 mb)
Winds: variable direction winds at 3 MPH (3 knots; 1.5 m/s)
Visibility: 4 miles ( 7 km)
Ceiling: 1300 feet AGL
Clouds: few clouds at 600 feet AGL
broken clouds at 1300 feet AGL
scattered clouds at 1600 feet AGL
Weather: TS  (thunderstorm)

METAR text: FKKD 220900Z 30006KT 270V350 6000 -TSRA SCT006 BKN013 SCT016CB 23/23 Q1010 NOSIG
Conditions at: FKKD (DOUALA (CIV/MIL), CM) observed 0900 UTC 22 March 2019
Temperature: 23.0°C (73°F)
Dewpoint: 23.0°C (73°F) [RH = 100%]
Pressure (altimeter): 29.82 inches Hg (1010.0 mb)
Winds: from the WNW (300 degrees) at 7 MPH (6 knots; 3.1 m/s)
Visibility: 4 miles ( 6 km)
Ceiling: 1300 feet AGL
Clouds: scattered clouds at 600 feet AGL
broken clouds at 1300 feet AGL
scattered clouds at 1600 feet AGL
Weather: -TSRA  (light rain associated with thunderstorm(s))

METAR text: FKKD 220700Z VRB02KT 6000 -TSRA SCT006 BKN013 SCT016CB 22/22 Q1009 NOSIG
Conditions at: FKKD (DOUALA (CIV/MIL), CM) observed 0700 UTC 22 March 2019
Temperature: 22.0°C (72°F)
Dewpoint: 22.0°C (72°F) [RH = 100%]
Pressure (altimeter): 29.79 inches Hg (1009.0 mb)
Winds: variable direction winds at 2 MPH (2 knots; 1.0 m/s)
Visibility: 4 miles ( 6 km)
Ceiling: 1300 feet AGL
Clouds: scattered clouds at 600 feet AGL
broken clouds at 1300 feet AGL
scattered clouds at 1600 feet AGL
Weather: -TSRA  (light rain associated with thunderstorm(s))

METAR text: FKKD 220600Z 09003KT 6000 TS BKN008 OVC013 FEW016CB 27/27 Q1009 TEMPO 4000 TSRA
Conditions at: FKKD (DOUALA (CIV/MIL), CM) observed 0600 UTC 22 March 2019
Temperature: 27.0°C (81°F)
Dewpoint: 27.0°C (81°F) [RH = 100%]
Pressure (altimeter): 29.79 inches Hg (1009.0 mb)
Winds: from the E (90 degrees) at 3 MPH (3 knots; 1.5 m/s)
Visibility: 4 miles ( 6 km)
Ceiling: 800 feet AGL
Clouds: broken clouds at 800 feet AGL
overcast cloud deck at 1300 feet AGL
few clouds at 1600 feet AGL
Weather: TS  (thunderstorm)

METAR text: FKKD 220500Z 14003KT 8000 TS BKN013 FEW016CB 26/26 Q1008 TEMPO 4000 TSRA
Conditions at: FKKD (DOUALA (CIV/MIL), CM) observed 0500 UTC 22 March 2019
Temperature: 26.0°C (79°F)
Dewpoint: 26.0°C (79°F) [RH = 100%]
Pressure (altimeter): 29.76 inches Hg (1008.0 mb)
Winds: from the SE (140 degrees) at 3 MPH (3 knots; 1.5 m/s)
Visibility: 5 miles ( 8 km)
Ceiling: 1300 feet AGL
Clouds: broken clouds at 1300 feet AGL
few clouds at 1600 feet AGL
Weather: TS  (thunderstorm)

METAR text: FKKD 220400Z 00000KT 6000 TS SCT013 FEW016CB 26/26 Q1007 NOSIG
Conditions at: FKKD (DOUALA (CIV/MIL), CM) observed 0400 UTC 22 March 2019
Temperature: 26.0°C (79°F)
Dewpoint: 26.0°C (79°F) [RH = 100%]
Pressure (altimeter): 29.73 inches Hg (1007.0 mb)
Winds: calm
Visibility: 4 miles ( 6 km)
Ceiling: at least 12,000 feet AGL
Clouds: scattered clouds at 1300 feet AGL
few clouds at 1600 feet AGL
Weather: TS  (thunderstorm)

METAR text: FKKD 220300Z VRB01KT 6000 TS BKN013 FEW016CB 27/27 Q1007 TEMPO 4000 TSRA
Conditions at: FKKD (DOUALA (CIV/MIL), CM) observed 0300 UTC 22 March 2019
Temperature: 27.0°C (81°F)
Dewpoint: 27.0°C (81°F) [RH = 100%]
Pressure (altimeter): 29.73 inches Hg (1007.0 mb)
Winds: variable direction winds at 1 MPH (1 knots; 0.5 m/s)
Visibility: 4 miles ( 6 km)
Ceiling: 1300 feet AGL
Clouds: broken clouds at 1300 feet AGL
few clouds at 1600 feet AGL
Weather: TS  (thunderstorm)

METAR text: FKKD 220200Z VRB02KT 6000 -TSRA SCT008 BKN013 FEW013CB 27/27 Q1007 TEMPO 4000 TSRA
Conditions at: FKKD (DOUALA (CIV/MIL), CM) observed 0200 UTC 22 March 2019
Temperature: 27.0°C (81°F)
Dewpoint: 27.0°C (81°F) [RH = 100%]
Pressure (altimeter): 29.73 inches Hg (1007.0 mb)
Winds: variable direction winds at 2 MPH (2 knots; 1.0 m/s)
Visibility: 4 miles ( 6 km)
Ceiling: 1300 feet AGL
Clouds: scattered clouds at 800 feet AGL
broken clouds at 1300 feet AGL
few clouds at 1300 feet AGL
Weather: -TSRA  (light rain associated with thunderstorm(s))

METAR text: FKKD 220100Z 00000KT 9999 BKN013 FEW016CB 27/27 Q1007 TEMPO TS
Conditions at: FKKD (DOUALA (CIV/MIL), CM) observed 0100 UTC 22 March 2019
Temperature: 27.0°C (81°F)
Dewpoint: 27.0°C (81°F) [RH = 100%]
Pressure (altimeter): 29.73 inches Hg (1007.0 mb)
Winds: calm
Visibility: 6 or more miles (10+ km)
Ceiling: 1300 feet AGL
Clouds: broken clouds at 1300 feet AGL
few clouds at 1600 feet AGL
Weather: no significant weather observed at this time

METAR text: FKKD 220000Z VRB01KT 9999 BKN016 FEW020CB 27/27 Q1008 BECMG BKN013 FEW016CB
Conditions at: FKKD (DOUALA (CIV/MIL), CM) observed 0000 UTC 22 March 2019
Temperature: 27.0°C (81°F)
Dewpoint: 27.0°C (81°F) [RH = 100%]
Pressure (altimeter): 29.76 inches Hg (1008.0 mb)
Winds: variable direction winds at 1 MPH (1 knots; 0.5 m/s)
Visibility: 6 or more miles (10+ km)
Ceiling: 1600 feet AGL
Clouds: broken clouds at 1600 feet AGL
few clouds at 2000 feet AGL
Weather: no significant weather observed at this time

METAR text: FKKD 212300Z VRB02KT 9999 BKN016 FEW020CB 27/27 Q1009 NOSIG
Conditions at: FKKD (DOUALA (CIV/MIL), CM) observed 2300 UTC 21 March 2019
Temperature: 27.0°C (81°F)
Dewpoint: 27.0°C (81°F) [RH = 100%]
Pressure (altimeter): 29.79 inches Hg (1009.0 mb)
Winds: variable direction winds at 2 MPH (2 knots; 1.0 m/s)
Visibility: 6 or more miles (10+ km)
Ceiling: 1600 feet AGL
Clouds: broken clouds at 1600 feet AGL
few clouds at 2000 feet AGL
Weather: no significant weather observed at this time

METAR text: FKKD 212200Z VRB02KT 9999 BKN016 FEW020CB 27/27 Q1009 TEMPO TS
Conditions at: FKKD (DOUALA (CIV/MIL), CM) observed 2200 UTC 21 March 2019
Temperature: 27.0°C (81°F)
Dewpoint: 27.0°C (81°F) [RH = 100%]
Pressure (altimeter): 29.79 inches Hg (1009.0 mb)
Winds: variable direction winds at 2 MPH (2 knots; 1.0 m/s)
Visibility: 6 or more miles (10+ km)
Ceiling: 1600 feet AGL
Clouds: broken clouds at 1600 feet AGL
few clouds at 2000 feet AGL
Weather: no significant weather observed at this time

METAR text: FKKD 212100Z 00000KT 9999 BKN016 FEW020CB 28/27 Q1008 TEMPO TS
Conditions at: FKKD (DOUALA (CIV/MIL), CM) observed 2100 UTC 21 March 2019
Temperature: 28.0°C (82°F)
Dewpoint: 27.0°C (81°F) [RH = 94%]
Pressure (altimeter): 29.76 inches Hg (1008.0 mb)
Winds: calm
Visibility: 6 or more miles (10+ km)
Ceiling: 1600 feet AGL
Clouds: broken clouds at 1600 feet AGL
few clouds at 2000 feet AGL
Weather: no significant weather observed at this time

METAR text: FKKD 212000Z VRB02KT 9999 BKN016 FEW020CB 29/27 Q1008 TEMPO TS
Conditions at: FKKD (DOUALA (CIV/MIL), CM) observed 2000 UTC 21 March 2019
Temperature: 29.0°C (84°F)
Dewpoint: 27.0°C (81°F) [RH = 89%]
Pressure (altimeter): 29.76 inches Hg (1008.0 mb)
Winds: variable direction winds at 2 MPH (2 knots; 1.0 m/s)
Visibility: 6 or more miles (10+ km)
Ceiling: 1600 feet AGL
Clouds: broken clouds at 1600 feet AGL
few clouds at 2000 feet AGL
Weather: no significant weather observed at this time

METAR text: FKKD 211900Z VRB01KT 9999 BKN016 FEW020CB 29/27 Q1007 TEMPO TS
Conditions at: FKKD (DOUALA (CIV/MIL), CM) observed 1900 UTC 21 March 2019
Temperature: 29.0°C (84°F)
Dewpoint: 27.0°C (81°F) [RH = 89%]
Pressure (altimeter): 29.73 inches Hg (1007.0 mb)
Winds: variable direction winds at 1 MPH (1 knots; 0.5 m/s)
Visibility: 6 or more miles (10+ km)
Ceiling: 1600 feet AGL
Clouds: broken clouds at 1600 feet AGL
few clouds at 2000 feet AGL
Weather: no significant weather observed at this time

METAR text: FKKD 211700Z VRB03KT 9999 SCT016 FEW023CB 30/27 Q1005 NOSIG
Conditions at: FKKD (DOUALA (CIV/MIL), CM) observed 1700 UTC 21 March 2019
Temperature: 30.0°C (86°F)
Dewpoint: 27.0°C (81°F) [RH = 84%]
Pressure (altimeter): 29.68 inches Hg (1005.0 mb)
Winds: variable direction winds at 3 MPH (3 knots; 1.5 m/s)
Visibility: 6 or more miles (10+ km)
Ceiling: at least 12,000 feet AGL
Clouds: scattered clouds at 1600 feet AGL
few clouds at 2300 feet AGL
Weather: no significant weather observed at this time

METAR text: FKKD 211600Z VRB04KT 9999 SCT016 FEW023CB 31/27 Q1004 NOSIG
Conditions at: FKKD (DOUALA (CIV/MIL), CM) observed 1600 UTC 21 March 2019
Temperature: 31.0°C (88°F)
Dewpoint: 27.0°C (81°F) [RH = 79%]
Pressure (altimeter): 29.65 inches Hg (1004.0 mb)
Winds: variable direction winds at 5 MPH (4 knots; 2.1 m/s)
Visibility: 6 or more miles (10+ km)
Ceiling: at least 12,000 feet AGL
Clouds: scattered clouds at 1600 feet AGL
few clouds at 2300 feet AGL
Weather: no significant weather observed at this time

METAR text: FKKD 211500Z VRB05KT 9999 SCT016 FEW023CB 32/27 Q1005 NOSIG
Conditions at: FKKD (DOUALA (CIV/MIL), CM) observed 1500 UTC 21 March 2019
Temperature: 32.0°C (90°F)
Dewpoint: 27.0°C (81°F) [RH = 75%]
Pressure (altimeter): 29.68 inches Hg (1005.0 mb)
Winds: variable direction winds at 6 MPH (5 knots; 2.6 m/s)
Visibility: 6 or more miles (10+ km)
Ceiling: at least 12,000 feet AGL
Clouds: scattered clouds at 1600 feet AGL
few clouds at 2300 feet AGL
Weather: no significant weather observed at this time

METAR text: FKKD 211400Z VRB05KT 9999 SCT016 FEW023CB 33/27 Q1006 NOSIG
Conditions at: FKKD (DOUALA (CIV/MIL), CM) observed 1400 UTC 21 March 2019
Temperature: 33.0°C (91°F)
Dewpoint: 27.0°C (81°F) [RH = 71%]
Pressure (altimeter): 29.70 inches Hg (1006.0 mb)
Winds: variable direction winds at 6 MPH (5 knots; 2.6 m/s)
Visibility: 6 or more miles (10+ km)
Ceiling: at least 12,000 feet AGL
Clouds: scattered clouds at 1600 feet AGL
few clouds at 2300 feet AGL
Weather: no significant weather observed at this time

METAR text: FKKD 211300Z VRB05KT 9999 SCT017 FEW023CB 34/27 Q1007 NOSIG
Conditions at: FKKD (DOUALA (CIV/MIL), CM) observed 1300 UTC 21 March 2019
Temperature: 34.0°C (93°F)
Dewpoint: 27.0°C (81°F) [RH = 67%]
Pressure (altimeter): 29.73 inches Hg (1007.0 mb)
Winds: variable direction winds at 6 MPH (5 knots; 2.6 m/s)
Visibility: 6 or more miles (10+ km)
Ceiling: at least 12,000 feet AGL
Clouds: scattered clouds at 1700 feet AGL
few clouds at 2300 feet AGL
Weather: no significant weather observed at this time

Forecast for: FKKD (DOUALA (CIV/MIL), CM)
Text: TAF FKKD 222300Z 2300/2406 VRB05KT 9999 TS BKN010 SCT013CB
Forecast period: 0000 to 0600 UTC 23 March 2019
Forecast type: FROM: standard forecast or significant change
Winds: variable direction winds at 6 MPH (5 knots; 2.6 m/s)
Visibility: 6 or more miles 10+ km)
Ceiling: 1000 feet AGL
Clouds: broken clouds at 1000 feet AGL
scattered clouds at 1300 feet AGL
Weather: TS  (thunderstorm)
Text: TEMPO 2300/2303 2000 TSRA
Forecast period: 0000 to 0300 UTC 23 March 2019
Forecast type: TEMPORARY: The following changes expected for less than half the time period
Visibility: 1.24 miles (2.00 km)
Ceiling: unknown
Clouds: missing
Weather: TSRA  (rain associated with thunderstorm(s))
Text: BECMG 2306/2309 NSW BKN016 FEW020CB
Forecast period: 0600 UTC 23 March 2019 to 0600 UTC 24 March 2019
Forecast type: BECOMING: Conditions expected to become as follows by 0900 UTC 23 March 2019
Winds: variable direction winds at 6 MPH (5 knots; 2.6 m/s)
Visibility: 6 or more miles 10+ km)
Ceiling: 1600 feet AGL
Clouds: broken clouds at 1600 feet AGL
few clouds at 2000 feet AGL
Weather: NSW  (no significant weather)